Time;durP1;ratioP1;P1;durP2;ratioP2;P2;SDS_P1;SDS_P2;PMS_P1;PMS_P2;Temp;Humidity;BMP_temperature;BMP_pressure;BME280_temperature;BME280_humidity;BME280_pressure;Samples;Min_cycle;Max_cycle;Signal;HPM_P1;HPM_P2
2020/12/04 00:00:27;;;;;;;6.37;2.17;;;8.90;99.90;;;;;;5073753;28;20213;-72
2020/12/04 00:02:53;;;;;;;2.97;1.63;;;9.00;99.90;;;;;;5074422;28;20252;-73
2020/12/04 00:05:20;;;;;;;2.87;2.03;;;8.90;99.90;;;;;;5073882;28;20256;-74
2020/12/04 00:07:46;;;;;;;2.53;2.00;;;8.90;99.90;;;;;;5074810;28;20205;-76
2020/12/04 00:10:12;;;;;;;7.27;2.67;;;8.90;99.90;;;;;;5074054;28;20214;-73
2020/12/04 00:12:40;;;;;;;4.20;2.10;;;8.90;99.90;;;;;;5074282;28;20621;-74
2020/12/04 00:15:07;;;;;;;2.80;2.30;;;9.00;99.90;;;;;;5073867;28;20260;-70
2020/12/04 00:17:35;;;;;;;3.60;1.60;;;9.00;99.90;;;;;;5074585;28;20206;-76
2020/12/04 00:20:01;;;;;;;4.60;2.07;;;9.00;99.90;;;;;;5074829;28;20210;-73
2020/12/04 00:22:28;;;;;;;6.47;2.60;;;9.00;99.90;;;;;;5073749;28;20214;-74
2020/12/04 00:24:54;;;;;;;5.60;2.70;;;9.00;99.90;;;;;;5074304;28;20206;-73
2020/12/04 00:27:21;;;;;;;3.40;2.13;;;9.00;99.90;;;;;;5073504;28;20314;-73
2020/12/04 00:29:47;;;;;;;7.00;2.53;;;9.00;99.90;;;;;;5073982;28;20210;-75
2020/12/04 00:32:14;;;;;;;5.70;2.50;;;9.00;99.90;;;;;;5073245;28;20211;-72
2020/12/04 00:34:41;;;;;;;3.03;1.90;;;9.00;99.90;;;;;;5073928;28;20248;-76
2020/12/04 00:37:08;;;;;;;7.70;4.23;;;9.00;99.90;;;;;;5073788;28;20210;-72
2020/12/04 00:39:35;;;;;;;2.90;1.87;;;9.00;99.90;;;;;;5073838;28;20677;-72
2020/12/04 00:42:01;;;;;;;4.80;2.60;;;9.00;99.90;;;;;;5074017;28;20206;-73
2020/12/04 00:44:28;;;;;;;4.37;2.27;;;9.00;99.90;;;;;;5073202;28;20210;-72
2020/12/04 00:46:54;;;;;;;10.30;3.33;;;9.00;99.90;;;;;;5073424;28;20226;-73
2020/12/04 00:49:20;;;;;;;5.97;2.90;;;8.90;99.90;;;;;;5073149;28;20718;-71
2020/12/04 00:51:52;;;;;;;4.97;2.50;;;8.80;99.90;;;;;;5073141;28;20224;-72
2020/12/04 00:54:18;;;;;;;5.87;2.30;;;8.80;99.90;;;;;;5072991;28;20202;-80
2020/12/04 00:56:44;;;;;;;4.80;2.70;;;9.30;99.90;;;;;;5072898;28;20256;-73
2020/12/04 00:59:11;;;;;;;4.27;2.67;;;9.30;99.90;;;;;;5073116;28;20240;-77
2020/12/04 01:01:37;;;;;;;8.10;3.40;;;9.20;99.90;;;;;;5073311;28;20210;-74
2020/12/04 01:04:04;;;;;;;5.43;2.93;;;9.00;99.90;;;;;;5073678;28;20669;-78
2020/12/04 01:06:30;;;;;;;4.50;3.23;;;8.70;99.90;;;;;;5073154;28;20234;-78
2020/12/04 01:08:57;;;;;;;8.10;3.43;;;8.60;99.90;;;;;;5073412;28;20267;-85
2020/12/04 01:11:25;;;;;;;4.90;2.80;;;8.60;99.90;;;;;;5073252;28;20255;-83
2020/12/04 01:13:52;;;;;;;4.57;3.37;;;8.50;99.90;;;;;;5072941;28;20206;-77
2020/12/04 01:16:18;;;;;;;3.83;3.30;;;8.60;99.90;;;;;;5072530;28;20218;-69
2020/12/04 01:18:45;;;;;;;4.13;2.63;;;8.50;99.90;;;;;;5073321;28;20207;-69
2020/12/04 01:21:12;;;;;;;6.13;3.03;;;8.50;99.90;;;;;;5072733;28;20681;-77
2020/12/04 01:23:39;;;;;;;9.53;2.93;;;8.40;99.90;;;;;;5072742;28;20289;-77
2020/12/04 01:26:07;;;;;;;7.87;3.47;;;8.40;99.90;;;;;;5072706;28;20280;-69
2020/12/04 01:28:33;;;;;;;9.97;3.30;;;8.30;99.90;;;;;;5073044;28;20206;-72
2020/12/04 01:31:00;;;;;;;3.63;2.83;;;8.20;99.90;;;;;;5072485;28;20226;-69
2020/12/04 01:33:26;;;;;;;8.20;3.23;;;8.10;99.90;;;;;;5072047;28;20206;-76
2020/12/04 01:35:53;;;;;;;6.27;3.27;;;8.10;99.90;;;;;;5072799;28;20237;-76
2020/12/04 01:38:19;;;;;;;3.60;2.67;;;8.00;99.90;;;;;;5072032;28;20736;-75
2020/12/04 01:40:46;;;;;;;3.57;2.70;;;8.00;99.90;;;;;;5072288;28;20686;-70
2020/12/04 01:43:13;;;;;;;5.07;3.83;;;8.00;99.90;;;;;;5063513;28;20198;-73
2020/12/04 01:45:39;;;;;;;5.13;3.07;;;8.00;99.90;;;;;;5072496;28;20255;-81
2020/12/04 01:48:06;;;;;;;3.43;2.97;;;8.00;99.90;;;;;;5072686;28;20206;-75
2020/12/04 01:50:33;;;;;;;5.30;2.43;;;7.90;99.90;;;;;;5072686;28;20669;-75
2020/12/04 01:52:59;;;;;;;4.20;3.03;;;7.90;99.90;;;;;;5072372;28;20206;-68
2020/12/04 01:55:27;;;;;;;10.97;4.23;;;7.80;99.90;;;;;;5071975;28;20235;-70
2020/12/04 01:57:53;;;;;;;7.43;2.83;;;7.90;99.90;;;;;;5072136;28;20271;-71
2020/12/04 02:00:21;;;;;;;5.60;3.80;;;7.80;99.90;;;;;;5072069;28;20199;-70
2020/12/04 02:02:48;;;;;;;6.63;2.90;;;7.90;99.90;;;;;;5072577;28;20202;-73
2020/12/04 02:05:15;;;;;;;6.67;3.27;;;7.90;99.90;;;;;;5071500;28;20578;-82
2020/12/04 02:07:49;;;;;;;6.87;3.73;;;7.90;99.90;;;;;;5071905;28;20233;-77
2020/12/04 02:10:21;;;;;;;5.27;3.10;;;7.90;99.90;;;;;;5071365;28;20255;-69
2020/12/04 02:12:49;;;;;;;4.57;2.67;;;7.90;99.90;;;;;;5072266;28;20584;-69
2020/12/04 02:15:15;;;;;;;5.40;2.30;;;7.90;99.90;;;;;;5071252;28;20677;-71
2020/12/04 02:17:45;;;;;;;3.47;1.80;;;7.80;99.90;;;;;;5071922;28;20268;-69
2020/12/04 02:20:12;;;;;;;4.53;2.13;;;7.80;99.90;;;;;;5070798;28;20206;-77
2020/12/04 02:22:40;;;;;;;3.13;1.43;;;7.70;99.90;;;;;;5071827;28;20206;-82
2020/12/04 02:25:08;;;;;;;2.60;0.90;;;7.60;99.90;;;;;;5071294;28;20268;-81
2020/12/04 02:27:35;;;;;;;3.37;1.23;;;7.60;99.90;;;;;;5071949;28;20737;-75
2020/12/04 02:30:04;;;;;;;3.03;1.63;;;7.50;99.90;;;;;;5071926;28;20693;-72
2020/12/04 02:32:30;;;;;;;1.97;1.20;;;7.40;99.90;;;;;;5071206;28;20633;-79
2020/12/04 02:34:56;;;;;;;4.30;0.83;;;7.30;99.90;;;;;;5071513;28;20206;-69
2020/12/04 02:37:23;;;;;;;1.23;0.73;;;7.20;99.90;;;;;;5070769;28;20206;-82
2020/12/04 02:39:50;;;;;;;3.73;0.70;;;7.20;99.90;;;;;;5071537;28;20210;-77
2020/12/04 02:42:17;;;;;;;0.90;0.37;;;7.10;99.90;;;;;;5070855;28;20555;-82
2020/12/04 02:44:43;;;;;;;0.80;0.37;;;7.10;99.90;;;;;;5071558;28;20232;-69
2020/12/04 02:47:10;;;;;;;0.50;0.50;;;7.00;99.90;;;;;;5071169;28;20291;-79
2020/12/04 02:49:37;;;;;;;0.47;0.30;;;7.00;99.90;;;;;;5071590;28;20279;-78
2020/12/04 02:52:03;;;;;;;2.13;0.40;;;7.00;99.90;;;;;;5071303;28;20666;-76
2020/12/04 02:54:29;;;;;;;0.33;0.27;;;6.90;99.90;;;;;;5070321;28;20207;-69
2020/12/04 02:56:57;;;;;;;0.57;0.30;;;7.00;99.90;;;;;;5071375;28;20207;-68
2020/12/04 02:59:23;;;;;;;0.97;0.33;;;6.90;99.90;;;;;;5070339;28;20211;-68
2020/12/04 03:01:50;;;;;;;0.93;0.30;;;6.90;99.90;;;;;;5071097;28;20206;-71
2020/12/04 03:04:16;;;;;;;1.63;0.40;;;6.90;99.90;;;;;;5070451;28;20255;-70
2020/12/04 03:06:42;;;;;;;0.37;0.30;;;6.90;99.90;;;;;;5071326;28;20271;-70
2020/12/04 03:09:09;;;;;;;1.77;0.50;;;6.90;99.90;;;;;;5070355;28;20232;-72
2020/12/04 03:11:35;;;;;;;0.83;0.33;;;6.90;99.90;;;;;;5071081;28;20218;-68
2020/12/04 03:14:03;;;;;;;0.30;0.20;;;6.90;99.90;;;;;;5071334;28;20255;-72
2020/12/04 03:16:29;;;;;;;1.57;0.50;;;6.90;99.90;;;;;;5070184;28;20226;-68
2020/12/04 03:18:55;;;;;;;0.20;0.20;;;6.80;99.90;;;;;;5070748;28;20210;-75
2020/12/04 03:21:22;;;;;;;0.63;0.40;;;6.80;99.90;;;;;;5070224;28;20744;-76
2020/12/04 03:23:48;;;;;;;0.27;0.20;;;6.70;99.90;;;;;;5070475;28;20210;-73
2020/12/04 03:26:14;;;;;;;0.60;0.27;;;6.70;99.90;;;;;;5070441;28;20279;-69
2020/12/04 03:28:41;;;;;;;0.73;0.40;;;6.70;99.90;;;;;;5070647;28;20213;-67
2020/12/04 03:31:08;;;;;;;0.70;0.30;;;6.70;99.90;;;;;;5070310;28;20715;-67
2020/12/04 03:33:35;;;;;;;0.30;0.20;;;6.70;99.90;;;;;;5070488;28;20210;-74
2020/12/04 03:36:01;;;;;;;0.67;0.27;;;6.70;99.90;;;;;;5070784;28;20581;-70
2020/12/04 03:38:28;;;;;;;0.47;0.20;;;6.80;99.90;;;;;;5069725;28;20210;-68
2020/12/04 03:40:54;;;;;;;2.00;0.40;;;6.80;99.90;;;;;;5070886;28;20232;-74
2020/12/04 03:43:20;;;;;;;0.60;0.20;;;6.80;99.90;;;;;;5070359;28;20206;-74
2020/12/04 03:45:47;;;;;;;0.27;0.27;;;6.90;99.90;;;;;;5070564;28;20263;-69
2020/12/04 03:48:14;;;;;;;1.93;0.30;;;6.90;99.90;;;;;;5069963;28;20587;-73
2020/12/04 03:50:40;;;;;;;0.43;0.30;;;6.90;99.90;;;;;;5070099;28;20202;-71
2020/12/04 03:53:07;;;;;;;0.73;0.40;;;6.90;99.90;;;;;;5070840;28;20574;-72
2020/12/04 03:55:33;;;;;;;1.73;0.30;;;6.90;99.90;;;;;;5071105;28;20209;-75
2020/12/04 03:58:00;;;;;;;0.87;0.30;;;6.90;99.90;;;;;;5070164;28;20209;-66
2020/12/04 04:00:26;;;;;;;0.83;0.47;;;6.90;99.90;;;;;;5070078;28;20206;-68
2020/12/04 04:02:53;;;;;;;0.63;0.33;;;6.90;99.90;;;;;;5070030;28;20665;-74
2020/12/04 04:05:20;;;;;;;2.20;0.40;;;6.90;99.90;;;;;;5070079;28;20210;-74
2020/12/04 04:07:46;;;;;;;0.70;0.40;;;6.90;99.90;;;;;;5069974;28;20705;-73
2020/12/04 04:10:13;;;;;;;0.83;0.43;;;6.90;99.90;;;;;;5070169;28;20248;-71
2020/12/04 04:12:39;;;;;;;1.13;0.30;;;7.00;99.90;;;;;;5070618;28;20272;-71
2020/12/04 04:15:06;;;;;;;2.00;0.30;;;6.90;99.90;;;;;;5070166;28;20210;-67
2020/12/04 04:17:32;;;;;;;1.20;0.50;;;6.90;99.90;;;;;;5070588;28;20210;-71
2020/12/04 04:19:58;;;;;;;1.67;0.43;;;6.90;99.90;;;;;;5069545;28;20741;-68
2020/12/04 04:22:26;;;;;;;3.97;0.50;;;6.80;99.90;;;;;;5070039;28;20256;-75
2020/12/04 04:24:52;;;;;;;1.47;0.40;;;6.80;99.90;;;;;;5069960;28;20206;-76
2020/12/04 04:27:19;;;;;;;0.50;0.30;;;6.70;99.90;;;;;;5069699;28;20226;-75
2020/12/04 04:29:45;;;;;;;1.93;0.70;;;6.60;99.90;;;;;;5069955;28;20627;-68
2020/12/04 04:32:11;;;;;;;1.30;0.50;;;6.60;99.90;;;;;;5056077;28;20210;-69
2020/12/04 04:34:38;;;;;;;1.87;0.67;;;6.60;99.90;;;;;;5069803;28;20739;-74
2020/12/04 04:37:04;;;;;;;0.63;0.30;;;6.60;99.90;;;;;;5069923;28;20670;-71
2020/12/04 04:39:32;;;;;;;2.47;0.53;;;6.60;99.90;;;;;;5070087;28;20259;-74
2020/12/04 04:41:58;;;;;;;0.50;0.50;;;6.50;99.90;;;;;;5069998;28;20260;-73
2020/12/04 04:44:25;;;;;;;0.97;0.70;;;6.50;99.90;;;;;;5073115;28;20224;-68
2020/12/04 04:47:02;;;;;;;1.47;0.37;;;6.40;99.90;;;;;;5075420;28;20248;-68
2020/12/04 04:49:34;;;;;;;0.60;0.30;;;6.40;99.90;;;;;;5091322;28;20601;-74
2020/12/04 04:52:01;;;;;;;1.53;0.80;;;6.40;99.90;;;;;;5077809;28;20206;-72
2020/12/04 04:54:29;;;;;;;0.87;0.30;;;6.40;99.90;;;;;;5090287;28;20213;-73
2020/12/04 04:56:56;;;;;;;2.23;0.40;;;6.40;99.90;;;;;;5092660;28;21139;-70
2020/12/04 04:59:23;;;;;;;2.43;0.50;;;6.40;99.90;;;;;;5090484;28;20287;-71
2020/12/04 05:01:50;;;;;;;1.50;0.40;;;6.30;99.90;;;;;;5089456;28;20205;-73
2020/12/04 05:04:18;;;;;;;1.37;0.50;;;6.40;99.90;;;;;;5084168;28;20202;-68
2020/12/04 05:06:44;;;;;;;1.87;0.40;;;6.50;99.90;;;;;;5090384;28;20290;-75
2020/12/04 05:09:17;;;;;;;0.90;0.40;;;6.40;99.90;;;;;;5086997;28;20593;-68
2020/12/04 05:11:59;;;;;;;1.13;0.43;;;6.40;99.90;;;;;;5088837;28;20205;-72
2020/12/04 05:14:26;;;;;;;0.90;0.70;;;6.40;99.90;;;;;;5081931;28;20705;-68
2020/12/04 05:16:55;;;;;;;0.60;0.30;;;6.50;99.90;;;;;;5079262;28;20209;-73
2020/12/04 05:19:31;;;;;;;0.50;0.43;;;6.40;99.90;;;;;;5084015;28;20275;-72
2020/12/04 05:22:08;;;;;;;0.63;0.50;;;6.40;99.90;;;;;;5078430;28;20564;-72
2020/12/04 05:24:35;;;;;;;1.63;0.60;;;6.40;99.90;;;;;;5081433;28;20232;-68
2020/12/04 05:27:23;;;;;;;1.53;0.40;;;6.40;99.90;;;;;;5086067;28;20261;-70
2020/12/04 05:29:50;;;;;;;1.63;1.13;;;6.40;99.90;;;;;;5074646;28;20210;-69
2020/12/04 05:32:17;;;;;;;2.20;0.40;;;6.40;99.90;;;;;;5083619;28;20262;-72
2020/12/04 05:34:43;;;;;;;1.97;0.50;;;6.40;99.90;;;;;;5078779;28;20210;-69
2020/12/04 05:37:10;;;;;;;1.53;0.40;;;6.40;99.90;;;;;;5082830;28;20322;-68
2020/12/04 05:39:44;;;;;;;0.43;0.30;;;6.30;99.90;;;;;;5076843;28;20745;-73
2020/12/04 05:42:11;;;;;;;1.20;0.30;;;6.40;99.90;;;;;;5081139;28;20205;-74
2020/12/04 05:44:53;;;;;;;0.70;0.40;;;6.30;99.90;;;;;;5064428;28;20210;-77
2020/12/04 05:47:21;;;;;;;0.60;0.43;;;6.20;99.90;;;;;;5080297;28;20229;-75
2020/12/04 05:49:47;;;;;;;1.13;0.30;;;6.20;99.90;;;;;;5076593;28;20210;-72
2020/12/04 05:52:15;;;;;;;1.97;0.70;;;6.20;99.90;;;;;;5075527;28;20206;-75
2020/12/04 05:54:43;;;;;;;1.00;0.80;;;6.20;99.90;;;;;;5090977;28;20201;-75
2020/12/04 05:57:13;;;;;;;0.83;0.47;;;6.20;99.90;;;;;;5090203;28;20212;-76
2020/12/04 05:59:45;;;;;;;1.93;0.40;;;6.20;99.90;;;;;;5089514;28;20259;-75
2020/12/04 06:02:15;;;;;;;3.27;1.03;;;6.20;99.90;;;;;;5089108;28;20211;-68
2020/12/04 06:04:42;;;;;;;1.70;0.30;;;6.10;99.90;;;;;;5084861;28;20204;-73
2020/12/04 06:07:12;;;;;;;0.57;0.30;;;6.10;99.90;;;;;;5088520;28;20233;-78
2020/12/04 06:09:40;;;;;;;1.63;0.30;;;6.10;99.90;;;;;;5081181;28;20207;-75
2020/12/04 06:12:13;;;;;;;1.00;0.50;;;6.10;99.90;;;;;;5087456;28;20292;-69
2020/12/04 06:14:40;;;;;;;0.87;0.40;;;6.00;99.90;;;;;;5078707;28;20218;-72
2020/12/04 06:17:11;;;;;;;1.33;0.40;;;6.00;99.90;;;;;;5087039;28;21173;-69
2020/12/04 06:19:38;;;;;;;2.43;0.60;;;6.00;99.90;;;;;;5081355;28;20261;-68
2020/12/04 06:22:07;;;;;;;6.47;0.93;;;6.00;99.90;;;;;;5086219;28;20213;-68
2020/12/04 06:24:53;;;;;;;1.20;0.53;;;5.90;99.90;;;;;;5080006;28;20267;-67
2020/12/04 06:27:43;;;;;;;1.17;0.60;;;5.80;99.90;;;;;;5078359;28;20221;-71
2020/12/04 06:30:10;;;;;;;2.07;0.50;;;5.80;99.90;;;;;;5081175;28;20200;-71
2020/12/04 06:32:41;;;;;;;1.00;0.50;;;5.80;99.90;;;;;;5080406;28;20198;-67
2020/12/04 06:35:08;;;;;;;1.53;0.67;;;5.80;99.90;;;;;;5079863;28;20210;-72
2020/12/04 06:37:38;;;;;;;1.77;0.80;;;5.70;99.90;;;;;;5081893;28;20206;-71
2020/12/04 06:40:24;;;;;;;2.67;0.50;;;5.70;99.90;;;;;;5075832;28;20206;-69
2020/12/04 06:42:52;;;;;;;2.70;0.57;;;5.60;99.90;;;;;;5079025;28;20206;-70
2020/12/04 06:45:18;;;;;;;6.50;1.33;;;5.60;99.90;;;;;;5077952;28;20255;-68
2020/12/04 06:48:06;;;;;;;0.57;0.37;;;5.60;99.90;;;;;;5080866;28;20233;-68
2020/12/04 06:50:42;;;;;;;0.50;0.50;;;5.60;99.90;;;;;;5080662;28;20206;-70
2020/12/04 06:53:10;;;;;;;1.03;0.30;;;5.60;99.90;;;;;;5057490;28;20623;-69
2020/12/04 06:55:37;;;;;;;1.83;0.50;;;5.60;99.90;;;;;;5071620;28;20221;-69
2020/12/04 06:58:05;;;;;;;2.33;0.60;;;5.60;99.90;;;;;;5070556;28;20220;-72
2020/12/04 07:00:32;;;;;;;1.10;0.40;;;5.60;99.90;;;;;;5071351;28;20206;-68
2020/12/04 07:02:59;;;;;;;0.63;0.53;;;5.60;99.90;;;;;;5069289;28;20236;-73
2020/12/04 07:05:27;;;;;;;0.80;0.63;;;5.60;99.90;;;;;;5070334;28;20206;-68
2020/12/04 07:08:02;;;;;;;0.90;0.60;;;5.60;99.90;;;;;;5070071;28;20229;-70
2020/12/04 07:10:31;;;;;;;1.37;0.47;;;5.60;99.90;;;;;;5071160;28;20210;-68
2020/12/04 07:12:58;;;;;;;1.10;0.30;;;5.60;99.90;;;;;;5070395;28;20293;-72
2020/12/04 07:15:26;;;;;;;2.53;0.73;;;5.50;99.90;;;;;;5070935;28;20227;-69
2020/12/04 07:17:53;;;;;;;0.87;0.60;;;5.60;99.90;;;;;;5070221;28;20739;-68
2020/12/04 07:20:20;;;;;;;1.97;0.77;;;5.50;99.90;;;;;;5063026;28;20206;-71
2020/12/04 07:22:47;;;;;;;0.80;0.67;;;5.60;99.90;;;;;;5076054;28;20220;-70
2020/12/04 07:25:13;;;;;;;4.20;1.00;;;5.50;99.90;;;;;;5085676;28;20202;-71
2020/12/04 07:27:40;;;;;;;2.40;1.40;;;5.60;99.90;;;;;;5089028;28;20649;-69
2020/12/04 07:30:16;;;;;;;5.50;1.20;;;5.60;99.90;;;;;;5087433;28;20205;-69
2020/12/04 07:32:50;;;;;;;2.00;1.10;;;5.60;99.90;;;;;;5088772;28;20209;-72
2020/12/04 07:35:17;;;;;;;4.33;1.93;;;5.60;99.90;;;;;;5084869;28;20676;-67
2020/12/04 07:37:44;;;;;;;1.67;0.70;;;5.60;99.90;;;;;;5084986;28;20209;-71
2020/12/04 07:40:10;;;;;;;2.30;1.27;;;5.60;99.90;;;;;;5084759;28;20615;-69
2020/12/04 07:42:39;;;;;;;1.10;0.80;;;5.60;99.90;;;;;;5088106;28;20209;-71
2020/12/04 07:45:06;;;;;;;2.77;0.70;;;5.60;99.90;;;;;;5083423;28;20202;-71
2020/12/04 07:47:41;;;;;;;1.23;0.80;;;5.60;99.90;;;;;;5086790;28;20593;-72
2020/12/04 07:50:10;;;;;;;3.93;1.37;;;5.70;99.90;;;;;;5081844;28;20217;-72
2020/12/04 07:52:49;;;;;;;5.60;2.90;;;5.70;99.90;;;;;;5072850;28;20210;-70
2020/12/04 07:55:17;;;;;;;3.83;1.70;;;5.70;99.90;;;;;;5090031;28;20271;-72
2020/12/04 07:57:52;;;;;;;2.47;0.80;;;5.80;99.90;;;;;;5086557;28;20198;-70
2020/12/04 08:00:18;;;;;;;1.70;0.90;;;5.80;99.90;;;;;;5085987;28;20250;-72
2020/12/04 08:02:44;;;;;;;2.37;1.83;;;5.80;99.90;;;;;;5083584;28;20206;-70
2020/12/04 08:05:20;;;;;;;4.00;1.73;;;5.90;99.90;;;;;;5087611;28;20206;-71
2020/12/04 08:07:51;;;;;;;5.27;2.27;;;5.90;99.90;;;;;;5085199;28;20709;-73
2020/12/04 08:10:18;;;;;;;2.33;1.53;;;5.90;99.90;;;;;;5087765;28;20212;-77
2020/12/04 08:12:47;;;;;;;4.27;1.93;;;5.90;99.90;;;;;;5085737;28;20205;-76
2020/12/04 08:15:15;;;;;;;6.53;2.23;;;6.00;99.90;;;;;;5065536;28;20325;-77
2020/12/04 08:17:42;;;;;;;3.83;1.67;;;6.00;99.90;;;;;;5087434;28;20201;-75
2020/12/04 08:20:15;;;;;;;3.53;1.53;;;6.10;99.90;;;;;;5090064;28;20254;-72
2020/12/04 08:22:48;;;;;;;2.30;1.90;;;6.10;99.90;;;;;;5092288;28;20202;-68
2020/12/04 08:25:15;;;;;;;3.90;2.03;;;6.10;99.90;;;;;;5090489;28;20198;-69
2020/12/04 08:27:44;;;;;;;5.47;3.63;;;6.10;99.90;;;;;;5091997;28;20314;-68
2020/12/04 08:30:15;;;;;;;3.83;1.77;;;6.10;99.90;;;;;;5069243;28;20693;-71
2020/12/04 08:32:43;;;;;;;2.73;1.63;;;6.10;99.90;;;;;;5069343;28;20260;-68
2020/12/04 08:35:13;;;;;;;4.43;2.47;;;6.10;99.90;;;;;;5076150;28;20696;-73
2020/12/04 08:37:40;;;;;;;4.27;2.00;;;6.20;99.90;;;;;;5079458;28;20685;-71
2020/12/04 08:40:20;;;;;;;2.03;1.70;;;6.30;99.90;;;;;;5077452;28;20271;-71
2020/12/04 08:42:47;;;;;;;2.37;1.47;;;6.30;99.90;;;;;;5076580;28;20232;-72
2020/12/04 08:45:13;;;;;;;3.63;1.33;;;6.30;99.90;;;;;;5077881;28;20210;-72
2020/12/04 08:47:42;;;;;;;2.33;1.80;;;6.30;99.90;;;;;;5076593;28;20226;-73
2020/12/04 08:50:17;;;;;;;2.07;1.40;;;6.40;99.90;;;;;;5063785;28;20260;-71
2020/12/04 08:52:50;;;;;;;1.33;1.10;;;6.50;99.90;;;;;;5070434;28;20209;-72
2020/12/04 08:55:19;;;;;;;3.70;1.63;;;6.50;99.90;;;;;;5065576;28;20626;-72
2020/12/04 08:57:47;;;;;;;3.07;1.70;;;6.50;99.90;;;;;;5073017;28;20267;-71
2020/12/04 09:00:16;;;;;;;2.60;1.60;;;6.50;99.90;;;;;;5073171;28;20252;-71
2020/12/04 09:02:42;;;;;;;2.00;1.47;;;6.50;99.90;;;;;;5073183;28;20210;-72
2020/12/04 09:05:12;;;;;;;1.87;1.10;;;6.50;99.90;;;;;;5071429;28;20202;-73
2020/12/04 09:07:39;;;;;;;2.53;1.17;;;6.60;99.90;;;;;;5069338;28;20229;-74
2020/12/04 09:10:07;;;;;;;3.47;1.20;;;6.60;99.90;;;;;;5059148;28;20735;-73
2020/12/04 09:12:35;;;;;;;1.80;1.13;;;6.60;99.90;;;;;;5065060;28;20206;-75
2020/12/04 09:15:02;;;;;;;3.73;1.47;;;6.60;99.90;;;;;;5072545;28;20209;-74
2020/12/04 09:17:29;;;;;;;1.80;0.80;;;6.70;99.90;;;;;;5063107;28;20198;-73
2020/12/04 09:19:56;;;;;;;1.83;1.00;;;6.80;99.90;;;;;;5071209;28;20198;-74
2020/12/04 09:22:22;;;;;;;2.43;1.67;;;6.90;99.90;;;;;;5068855;28;20301;-74
2020/12/04 09:24:49;;;;;;;3.07;1.73;;;6.90;99.90;;;;;;5058947;28;20202;-74
2020/12/04 09:27:16;;;;;;;1.00;0.53;;;6.90;99.90;;;;;;5061113;28;20277;-74
2020/12/04 09:29:43;;;;;;;2.50;0.67;;;6.90;99.90;;;;;;5060690;28;20210;-73
2020/12/04 09:32:12;;;;;;;1.97;0.87;;;6.90;99.90;;;;;;5071439;28;20206;-72
2020/12/04 09:34:41;;;;;;;3.27;1.53;;;6.80;99.90;;;;;;5072581;28;20669;-73
2020/12/04 09:37:18;;;;;;;3.77;1.80;;;6.90;99.90;;;;;;5072423;28;20588;-73
2020/12/04 09:39:46;;;;;;;6.27;5.67;;;7.10;99.90;;;;;;5072981;28;20210;-73
2020/12/04 09:42:14;;;;;;;6.90;3.57;;;7.20;99.90;;;;;;5072784;28;20233;-73
2020/12/04 09:44:42;;;;;;;3.77;2.13;;;7.30;99.90;;;;;;5072940;28;20335;-73
2020/12/04 09:47:10;;;;;;;9.17;5.27;;;7.10;99.90;;;;;;5071753;28;20287;-74
2020/12/04 09:49:37;;;;;;;2.93;2.60;;;7.20;99.90;;;;;;5061452;28;20261;-74
2020/12/04 09:52:04;;;;;;;3.47;2.90;;;7.20;99.90;;;;;;5068994;28;20263;-74
2020/12/04 09:54:36;;;;;;;3.50;1.93;;;7.30;99.90;;;;;;5088414;28;20205;-75
2020/12/04 09:57:04;;;;;;;3.23;2.93;;;7.40;99.90;;;;;;5090786;28;20209;-74
2020/12/04 09:59:32;;;;;;;4.83;2.23;;;7.40;99.90;;;;;;5088050;28;20197;-74
2020/12/04 10:01:58;;;;;;;5.83;4.70;;;7.50;99.90;;;;;;5089744;28;20259;-74
2020/12/04 10:04:25;;;;;;;4.50;3.10;;;7.70;99.90;;;;;;5087527;28;20209;-74
2020/12/04 10:06:53;;;;;;;8.27;5.17;;;7.70;99.90;;;;;;5088302;28;20229;-74
2020/12/04 10:09:20;;;;;;;7.80;3.57;;;7.80;99.90;;;;;;5087585;28;20672;-74
2020/12/04 10:11:47;;;;;;;8.77;7.40;;;7.90;99.90;;;;;;5066114;28;20746;-73
2020/12/04 10:14:14;;;;;;;9.33;7.37;;;7.90;99.90;;;;;;5089590;28;20244;-74
2020/12/04 10:16:41;;;;;;;10.07;7.10;;;7.90;99.90;;;;;;5088221;28;20259;-75
2020/12/04 10:19:08;;;;;;;6.23;3.27;;;7.80;99.90;;;;;;5089461;28;20212;-74
2020/12/04 10:21:37;;;;;;;16.27;8.73;;;7.90;99.90;;;;;;5087052;28;20256;-75
2020/12/04 10:24:05;;;;;;;14.57;9.30;;;7.90;99.90;;;;;;5089406;28;20205;-76
2020/12/04 10:26:31;;;;;;;4.93;2.20;;;8.00;99.90;;;;;;5087001;28;20242;-74
2020/12/04 10:28:58;;;;;;;10.70;7.13;;;8.20;99.90;;;;;;5078448;28;20257;-74
2020/12/04 10:31:24;;;;;;;10.73;3.07;;;8.40;99.90;;;;;;5081071;28;20207;-74
2020/12/04 10:33:51;;;;;;;5.07;1.93;;;8.40;99.90;;;;;;5085373;28;20228;-73
2020/12/04 10:36:17;;;;;;;4.07;2.37;;;9.10;99.90;;;;;;5081343;28;20205;-75
2020/12/04 10:38:44;;;;;;;3.23;2.13;;;9.70;99.90;;;;;;5085380;28;20209;-72
2020/12/04 10:41:11;;;;;;;4.07;1.60;;;9.70;99.90;;;;;;5085037;28;20282;-76
2020/12/04 10:43:37;;;;;;;1.17;1.00;;;9.30;99.90;;;;;;5082071;28;20207;-76
2020/12/04 10:46:04;;;;;;;5.47;1.97;;;9.10;99.90;;;;;;5084299;28;20210;-74
2020/12/04 10:48:31;;;;;;;2.97;0.90;;;9.10;99.90;;;;;;5079235;28;20291;-69
2020/12/04 10:50:57;;;;;;;1.27;1.00;;;9.10;99.90;;;;;;5081785;28;20205;-69
2020/12/04 10:53:26;;;;;;;3.93;1.07;;;9.10;99.90;;;;;;5071317;28;20673;-73
2020/12/04 10:55:53;;;;;;;4.13;0.70;;;8.90;99.90;;;;;;5056020;28;20306;-72
2020/12/04 10:58:20;;;;;;;2.03;1.30;;;8.60;99.90;;;;;;5089737;28;20211;-73
2020/12/04 11:00:49;;;;;;;1.33;1.00;;;8.50;99.90;;;;;;5089110;28;20209;-69
2020/12/04 11:03:22;;;;;;;1.33;0.67;;;8.20;99.90;;;;;;5090033;28;20286;-68
2020/12/04 11:05:48;;;;;;;1.73;0.60;;;8.10;99.90;;;;;;5089056;28;20205;-71
2020/12/04 11:08:15;;;;;;;2.00;0.67;;;7.90;99.90;;;;;;5077066;28;20370;-74
2020/12/04 11:10:42;;;;;;;1.30;0.97;;;7.80;99.90;;;;;;5090267;28;20202;-71
2020/12/04 11:13:10;;;;;;;5.30;1.37;;;7.90;99.90;;;;;;5087816;28;20227;-74
2020/12/04 11:15:37;;;;;;;2.87;1.20;;;8.00;99.90;;;;;;5089528;28;20349;-71
2020/12/04 11:18:04;;;;;;;1.23;0.70;;;8.20;99.90;;;;;;5074891;28;20255;-75
2020/12/04 11:20:30;;;;;;;2.67;1.20;;;8.40;99.90;;;;;;5089680;28;20235;-74
2020/12/04 11:22:57;;;;;;;2.63;1.63;;;8.70;99.90;;;;;;5087661;28;20205;-74
2020/12/04 11:25:24;;;;;;;3.77;1.00;;;8.80;99.90;;;;;;5064661;28;20197;-74
2020/12/04 11:27:52;;;;;;;1.37;0.80;;;8.80;99.90;;;;;;5081754;28;20283;-74
2020/12/04 11:30:20;;;;;;;1.53;0.97;;;8.80;99.90;;;;;;5074430;28;20703;-76
2020/12/04 11:32:48;;;;;;;3.63;1.40;;;8.90;99.90;;;;;;5088994;28;20270;-69
2020/12/04 11:35:16;;;;;;;1.73;1.13;;;9.10;99.90;;;;;;5087635;28;20201;-75
2020/12/04 11:37:46;;;;;;;2.47;0.70;;;9.10;99.90;;;;;;5088995;28;20213;-75
2020/12/04 11:40:17;;;;;;;1.00;0.70;;;9.10;99.90;;;;;;5088454;28;20237;-69
2020/12/04 11:42:45;;;;;;;1.30;0.70;;;9.10;99.90;;;;;;5089598;28;20240;-71
2020/12/04 11:45:14;;;;;;;2.53;0.73;;;9.10;99.90;;;;;;5087009;28;20209;-74
2020/12/04 11:47:42;;;;;;;1.00;0.40;;;9.00;99.90;;;;;;5089332;28;20235;-75
2020/12/04 11:50:10;;;;;;;2.17;0.60;;;8.90;99.90;;;;;;5076961;28;20261;-75
2020/12/04 11:52:37;;;;;;;2.40;0.60;;;8.70;99.90;;;;;;5065474;28;20211;-74
2020/12/04 11:55:04;;;;;;;5.73;1.33;;;8.70;99.90;;;;;;5055148;28;20198;-73
2020/12/04 11:57:31;;;;;;;2.20;1.17;;;8.70;99.90;;;;;;5079189;28;20201;-73
2020/12/04 11:59:58;;;;;;;3.67;0.90;;;8.90;99.90;;;;;;5084915;28;20266;-73
2020/12/04 12:02:24;;;;;;;0.90;0.60;;;9.00;99.90;;;;;;5089324;28;20255;-74
2020/12/04 12:04:51;;;;;;;11.43;6.93;;;8.90;99.90;;;;;;5086559;28;20247;-74
2020/12/04 12:07:18;;;;;;;15.13;7.40;;;9.10;99.90;;;;;;5088652;28;20337;-73
2020/12/04 12:09:47;;;;;;;4.53;2.60;;;9.40;99.90;;;;;;5086260;28;20258;-73
2020/12/04 12:12:14;;;;;;;1.30;1.07;;;9.40;99.90;;;;;;5088580;28;20205;-74
2020/12/04 12:14:40;;;;;;;1.67;1.10;;;9.60;99.90;;;;;;5086061;28;20264;-75
2020/12/04 12:17:07;;;;;;;1.00;0.50;;;9.60;99.90;;;;;;5082699;28;20206;-69
2020/12/04 12:19:34;;;;;;;1.33;0.70;;;9.70;99.90;;;;;;5074090;28;20615;-69
2020/12/04 12:22:01;;;;;;;1.10;0.93;;;9.50;99.90;;;;;;5088298;28;20206;-74
2020/12/04 12:24:28;;;;;;;2.97;0.97;;;9.50;99.90;;;;;;5087873;28;20243;-69
2020/12/04 12:26:54;;;;;;;1.43;0.53;;;9.30;99.90;;;;;;5086101;28;20625;-73
2020/12/04 12:29:20;;;;;;;0.87;0.60;;;9.20;99.90;;;;;;5088298;28;20251;-73
2020/12/04 12:31:47;;;;;;;2.90;1.60;;;9.10;99.90;;;;;;5085811;28;20207;-70
2020/12/04 12:34:13;;;;;;;4.70;2.50;;;9.20;99.90;;;;;;5088742;28;20202;-73
2020/12/04 12:36:40;;;;;;;5.60;1.70;;;9.20;99.90;;;;;;5086075;28;20244;-69
2020/12/04 12:39:07;;;;;;;2.57;0.70;;;9.00;99.90;;;;;;5087789;28;20680;-73
2020/12/04 12:41:33;;;;;;;4.53;2.70;;;8.70;99.90;;;;;;5086719;28;20210;-74
2020/12/04 12:44:00;;;;;;;1.97;1.20;;;8.30;99.90;;;;;;5086908;28;20246;-70
2020/12/04 12:46:26;;;;;;;0.40;0.30;;;8.00;99.90;;;;;;5088176;28;20206;-75
2020/12/04 12:48:53;;;;;;;0.43;0.40;;;7.80;99.90;;;;;;5064908;28;20275;-74
2020/12/04 12:51:19;;;;;;;7.20;0.97;;;7.90;99.90;;;;;;5082448;28;20252;-75
2020/12/04 12:53:45;;;;;;;1.00;0.60;;;8.10;99.90;;;;;;5069956;28;20228;-71
2020/12/04 12:56:13;;;;;;;2.00;0.80;;;8.30;99.90;;;;;;5064576;28;20206;-73
2020/12/04 12:58:39;;;;;;;1.37;1.10;;;8.40;99.90;;;;;;5079496;28;20268;-74
2020/12/04 13:01:06;;;;;;;2.43;0.70;;;8.50;99.90;;;;;;5056678;28;20215;-74